Time;durP1;ratioP1;P1;durP2;ratioP2;P2;SDS_P1;SDS_P2;PMS_P1;PMS_P2;Temp;Humidity;BMP_temperature;BMP_pressure;BME280_temperature;BME280_humidity;BME280_pressure;Samples;Min_cycle;Max_cycle;Signal;HPM_P1;HPM_P2
2024/03/28 00:01:38;;;;;;;3.67;3.37;;;;;;;;;;6149087;23;20438;-84
2024/03/28 00:04:07;;;;;;;3.43;3.13;;;;;;;;;;6149972;23;20449;-88
2024/03/28 00:06:33;;;;;;;3.43;3.13;;;;;;;;;;6180264;23;20406;-87
2024/03/28 00:09:07;;;;;;;3.13;2.60;;;;;;;;;;6186128;23;20477;-86
2024/03/28 00:11:34;;;;;;;3.37;3.10;;;;;;;;;;6185843;23;20462;-89
2024/03/28 00:14:02;;;;;;;3.47;3.07;;;;;;;;;;6185585;23;20474;-86
2024/03/28 00:16:42;;;;;;;5.13;2.77;;;;;;;;;;6186918;23;20453;-88
2024/03/28 00:19:14;;;;;;;4.93;2.87;;;;;;;;;;6208336;23;20498;-84
2024/03/28 00:21:43;;;;;;;3.03;2.83;;;;;;;;;;6180191;23;20402;-86
2024/03/28 00:24:10;;;;;;;2.93;2.73;;;;;;;;;;6172319;23;20441;-85
2024/03/28 00:26:37;;;;;;;2.80;2.17;;;;;;;;;;6172687;23;20424;-86
2024/03/28 00:29:03;;;;;;;4.43;2.80;;;;;;;;;;6173280;23;20440;-87
2024/03/28 00:31:33;;;;;;;3.80;2.57;;;;;;;;;;6173011;23;20410;-87
2024/03/28 00:34:01;;;;;;;3.00;2.80;;;;;;;;;;6172322;23;21200;-86
2024/03/28 00:36:40;;;;;;;2.97;2.77;;;;;;;;;;6172497;23;20401;-86
2024/03/28 00:39:10;;;;;;;2.80;2.60;;;;;;;;;;6168977;23;20426;-86
2024/03/28 00:41:39;;;;;;;2.67;2.47;;;;;;;;;;6170973;23;20460;-83
2024/03/28 00:44:05;;;;;;;4.83;3.00;;;;;;;;;;6170498;23;20450;-85
2024/03/28 00:46:40;;;;;;;2.77;2.57;;;;;;;;;;6168829;23;20405;-87
2024/03/28 00:49:10;;;;;;;2.43;2.23;;;;;;;;;;6167633;23;20415;-86
2024/03/28 00:51:50;;;;;;;3.17;2.70;;;;;;;;;;6170291;23;20402;-86
2024/03/28 00:54:16;;;;;;;2.60;2.40;;;;;;;;;;6169370;23;20503;-86
2024/03/28 00:56:43;;;;;;;2.63;2.43;;;;;;;;;;6168298;23;20414;-87
2024/03/28 00:59:10;;;;;;;3.30;3.00;;;;;;;;;;6194629;23;20424;-85
2024/03/28 01:01:42;;;;;;;3.03;2.83;;;;;;;;;;6173186;23;20597;-87
2024/03/28 01:04:09;;;;;;;3.20;2.80;;;;;;;;;;6183805;23;20445;-88
2024/03/28 01:06:37;;;;;;;3.47;2.70;;;;;;;;;;6183063;23;20463;-86
2024/03/28 01:09:04;;;;;;;3.13;2.63;;;;;;;;;;6175440;23;20422;-85
2024/03/28 01:11:37;;;;;;;4.50;2.70;;;;;;;;;;6170535;23;20495;-86
2024/03/28 01:14:04;;;;;;;3.70;3.20;;;;;;;;;;6168965;23;20402;-85
2024/03/28 01:16:31;;;;;;;3.30;2.20;;;;;;;;;;6120387;23;20392;-86
2024/03/28 01:18:58;;;;;;;3.20;2.90;;;;;;;;;;6167277;23;20428;-88
2024/03/28 01:21:25;;;;;;;2.60;2.40;;;;;;;;;;6167571;23;20402;-86
2024/03/28 01:23:54;;;;;;;2.60;2.40;;;;;;;;;;6167297;23;20438;-86
2024/03/28 01:26:28;;;;;;;2.50;2.13;;;;;;;;;;6168928;23;20398;-87
2024/03/28 01:28:54;;;;;;;3.43;3.10;;;;;;;;;;6168442;23;20418;-86
2024/03/28 01:31:25;;;;;;;2.93;2.73;;;;;;;;;;6169526;23;20408;-86
2024/03/28 01:33:54;;;;;;;2.63;2.43;;;;;;;;;;6166566;23;20430;-85
2024/03/28 01:36:24;;;;;;;2.80;2.60;;;;;;;;;;6167974;23;20402;-88
2024/03/28 01:38:53;;;;;;;2.60;2.40;;;;;;;;;;6166884;23;20485;-86
2024/03/28 01:41:30;;;;;;;2.57;2.10;;;;;;;;;;6168363;23;20410;-85
2024/03/28 01:43:57;;;;;;;2.77;2.57;;;;;;;;;;6167779;23;20472;-86
2024/03/28 01:46:24;;;;;;;2.40;2.20;;;;;;;;;;6168276;23;20398;-85
2024/03/28 01:48:55;;;;;;;2.70;2.50;;;;;;;;;;6169174;23;20449;-89
2024/03/28 01:51:23;;;;;;;2.37;2.17;;;;;;;;;;6169374;23;20402;-88
2024/03/28 01:53:51;;;;;;;3.70;2.60;;;;;;;;;;6166249;23;20398;-88
2024/03/28 01:56:26;;;;;;;3.33;3.07;;;;;;;;;;6182253;23;20462;-89
2024/03/28 01:58:57;;;;;;;2.70;2.50;;;;;;;;;;6183316;23;20520;-87
2024/03/28 02:01:24;;;;;;;2.57;2.37;;;;;;;;;;6210023;23;20477;-87
2024/03/28 02:03:56;;;;;;;2.40;2.20;;;;;;;;;;6169523;23;20442;-83
2024/03/28 02:06:24;;;;;;;4.40;2.30;;;;;;;;;;6165656;23;20402;-86
2024/03/28 02:08:55;;;;;;;2.70;2.50;;;;;;;;;;6182720;23;20482;-87
2024/03/28 02:11:22;;;;;;;2.87;2.57;;;;;;;;;;6136296;23;20469;-89
2024/03/28 02:13:54;;;;;;;3.00;2.80;;;;;;;;;;6206334;23;20406;-86
2024/03/28 02:16:22;;;;;;;3.10;2.80;;;;;;;;;;6180617;23;20477;-88
2024/03/28 02:18:49;;;;;;;3.30;3.00;;;;;;;;;;6130651;23;20430;-88
2024/03/28 02:21:21;;;;;;;2.90;2.70;;;;;;;;;;6180230;23;20402;-88
2024/03/28 02:23:51;;;;;;;3.03;2.77;;;;;;;;;;6174014;23;20435;-88
2024/03/28 02:26:19;;;;;;;4.60;3.37;;;;;;;;;;6168712;23;20407;-87
2024/03/28 02:28:47;;;;;;;3.90;2.80;;;;;;;;;;6167998;23;20468;-88
2024/03/28 02:31:14;;;;;;;3.33;3.03;;;;;;;;;;6167119;23;20519;-86
2024/03/28 02:33:43;;;;;;;3.20;2.90;;;;;;;;;;6168725;23;20912;-84
2024/03/28 02:36:10;;;;;;;2.73;2.50;;;;;;;;;;6167773;23;20406;-86
2024/03/28 02:38:37;;;;;;;2.50;2.27;;;;;;;;;;6167429;23;20426;-87
2024/03/28 02:41:06;;;;;;;2.80;2.60;;;;;;;;;;6168116;23;20429;-86
2024/03/28 02:43:39;;;;;;;3.20;2.90;;;;;;;;;;6172248;23;21074;-85
2024/03/28 02:46:08;;;;;;;3.33;2.93;;;;;;;;;;6177880;23;20410;-86
2024/03/28 02:48:40;;;;;;;3.90;3.10;;;;;;;;;;6178417;23;20422;-87
2024/03/28 02:51:09;;;;;;;2.90;2.40;;;;;;;;;;6175111;23;20504;-86
2024/03/28 02:53:42;;;;;;;3.30;3.00;;;;;;;;;;6174215;23;20448;-88
2024/03/28 02:56:08;;;;;;;3.17;2.90;;;;;;;;;;6194107;23;20750;-87
2024/03/28 02:58:38;;;;;;;3.57;2.90;;;;;;;;;;6169047;23;20430;-89
2024/03/28 03:01:05;;;;;;;6.10;3.30;;;;;;;;;;6167238;23;21193;-87
2024/03/28 03:03:31;;;;;;;3.40;2.80;;;;;;;;;;6168124;23;20434;-86
2024/03/28 03:05:58;;;;;;;6.03;3.23;;;;;;;;;;6167534;23;20418;-85
2024/03/28 03:08:24;;;;;;;3.57;3.27;;;;;;;;;;6167564;23;20398;-88
2024/03/28 03:10:53;;;;;;;4.00;3.60;;;;;;;;;;6208098;23;20467;-86
2024/03/28 03:13:23;;;;;;;4.77;3.00;;;;;;;;;;6182278;23;20390;-87
2024/03/28 03:15:55;;;;;;;3.73;3.20;;;;;;;;;;6181633;23;20469;-88
2024/03/28 03:18:26;;;;;;;4.07;3.30;;;;;;;;;;6176592;23;20400;-85
2024/03/28 03:21:07;;;;;;;3.63;3.30;;;;;;;;;;6164816;23;20406;-86
2024/03/28 03:23:38;;;;;;;3.60;3.30;;;;;;;;;;6165483;23;20828;-85
2024/03/28 03:26:20;;;;;;;3.50;2.77;;;;;;;;;;6164704;23;21100;-86
2024/03/28 03:34:35;;;;;;;4.50;3.40;;;;;;;;;;6166709;23;20710;-85
2024/03/28 03:37:12;;;;;;;3.23;2.97;;;;;;;;;;6164171;23;20801;-87
2024/03/28 03:39:42;;;;;;;4.43;3.13;;;;;;;;;;6162379;23;20425;-87
2024/03/28 03:42:14;;;;;;;4.43;3.30;;;;;;;;;;6164059;23;20412;-86
2024/03/28 03:44:43;;;;;;;3.60;2.87;;;;;;;;;;6165902;23;20399;-85
2024/03/28 03:47:09;;;;;;;3.27;2.50;;;;;;;;;;6165659;23;20394;-86
2024/03/28 03:49:37;;;;;;;3.43;3.13;;;;;;;;;;6165885;23;20414;-86
2024/03/28 03:52:04;;;;;;;6.93;3.73;;;;;;;;;;6166834;23;20406;-86
2024/03/28 03:54:33;;;;;;;3.63;3.30;;;;;;;;;;6180874;23;20444;-88
2024/03/28 03:57:00;;;;;;;4.80;3.43;;;;;;;;;;6183489;23;20470;-86
2024/03/28 03:59:30;;;;;;;6.33;3.30;;;;;;;;;;6177224;23;20506;-87
2024/03/28 04:01:57;;;;;;;2.80;2.60;;;;;;;;;;6172324;23;20398;-86
2024/03/28 04:04:26;;;;;;;3.30;3.00;;;;;;;;;;6177683;23;20468;-86
2024/03/28 04:06:57;;;;;;;5.37;2.57;;;;;;;;;;6179341;23;20444;-87
2024/03/28 04:09:26;;;;;;;3.30;3.00;;;;;;;;;;6180244;23;20421;-85
2024/03/28 04:12:01;;;;;;;4.97;2.70;;;;;;;;;;6175872;23;20402;-87
2024/03/28 04:14:28;;;;;;;3.83;2.77;;;;;;;;;;6170862;23;20398;-86
2024/03/28 04:16:55;;;;;;;2.73;2.53;;;;;;;;;;6175003;23;20432;-86
2024/03/28 04:19:22;;;;;;;3.43;2.83;;;;;;;;;;6202426;23;20429;-86
2024/03/28 04:21:51;;;;;;;3.17;2.83;;;;;;;;;;6193170;23;20428;-87
2024/03/28 04:24:21;;;;;;;3.00;2.70;;;;;;;;;;6169618;23;20446;-87
2024/03/28 04:26:50;;;;;;;3.93;3.10;;;;;;;;;;6174544;23;20402;-86
2024/03/28 04:29:41;;;;;;;3.90;2.97;;;;;;;;;;6195144;23;20397;-87
2024/03/28 04:32:08;;;;;;;3.63;3.33;;;;;;;;;;6167890;23;20395;-86
2024/03/28 04:34:38;;;;;;;3.70;3.17;;;;;;;;;;6169367;23;20432;-86
2024/03/28 04:37:05;;;;;;;3.57;3.10;;;;;;;;;;6183238;23;20478;-88
2024/03/28 04:39:44;;;;;;;4.20;3.83;;;;;;;;;;6185345;23;20477;-86
2024/03/28 04:42:16;;;;;;;3.50;3.20;;;;;;;;;;6183976;23;20457;-88
2024/03/28 04:44:52;;;;;;;4.50;3.87;;;;;;;;;;6182750;23;20466;-87
2024/03/28 04:47:22;;;;;;;5.80;3.63;;;;;;;;;;6183024;23;20465;-90
2024/03/28 04:49:51;;;;;;;4.23;3.83;;;;;;;;;;6184666;23;20498;-87
2024/03/28 04:52:25;;;;;;;6.00;3.70;;;;;;;;;;6185213;23;20470;-88
2024/03/28 04:54:55;;;;;;;6.93;4.00;;;;;;;;;;6184813;23;20514;-89
2024/03/28 04:57:24;;;;;;;9.60;3.80;;;;;;;;;;6185910;23;20457;-86
2024/03/28 04:59:52;;;;;;;4.50;4.10;;;;;;;;;;6183420;23;20605;-89
2024/03/28 05:02:25;;;;;;;4.33;3.90;;;;;;;;;;6184160;23;20482;-90
2024/03/28 05:04:55;;;;;;;4.40;3.67;;;;;;;;;;6183939;23;20470;-86
2024/03/28 05:07:32;;;;;;;5.93;4.00;;;;;;;;;;6184834;23;20472;-88
2024/03/28 05:10:05;;;;;;;5.43;3.47;;;;;;;;;;6181654;23;20491;-88
2024/03/28 05:12:50;;;;;;;5.20;3.83;;;;;;;;;;6163820;23;20492;-87
2024/03/28 05:15:21;;;;;;;5.00;4.07;;;;;;;;;;6165614;23;20412;-86
2024/03/28 05:17:49;;;;;;;4.93;4.20;;;;;;;;;;6169509;23;21259;-87
2024/03/28 05:20:33;;;;;;;5.33;4.10;;;;;;;;;;6170372;23;20480;-86
2024/03/28 05:23:03;;;;;;;4.80;3.10;;;;;;;;;;6169637;23;20442;-86
2024/03/28 05:25:32;;;;;;;4.30;3.67;;;;;;;;;;6168501;23;20438;-87
2024/03/28 05:27:59;;;;;;;6.23;4.10;;;;;;;;;;6181667;23;20450;-87
2024/03/28 05:30:39;;;;;;;5.50;4.77;;;;;;;;;;6185359;23;20505;-88
2024/03/28 05:33:05;;;;;;;5.57;4.00;;;;;;;;;;6210367;23;20446;-88
2024/03/28 05:35:40;;;;;;;6.40;4.17;;;;;;;;;;6185257;23;20480;-89
2024/03/28 05:38:12;;;;;;;6.00;4.60;;;;;;;;;;6184555;23;20445;-89
2024/03/28 05:40:45;;;;;;;4.97;4.10;;;;;;;;;;6183909;23;20457;-89
2024/03/28 05:43:12;;;;;;;8.33;3.70;;;;;;;;;;6184156;23;20522;-89
2024/03/28 05:45:43;;;;;;;9.13;3.40;;;;;;;;;;6185494;23;20593;-89
2024/03/28 05:48:10;;;;;;;4.50;3.40;;;;;;;;;;6183600;23;20462;-88
2024/03/28 05:50:40;;;;;;;10.67;2.33;;;;;;;;;;6208041;23;20457;-87
2024/03/28 05:53:14;;;;;;;3.57;3.10;;;;;;;;;;6183998;23;20461;-90
2024/03/28 05:56:01;;;;;;;3.63;2.83;;;;;;;;;;6184293;23;20481;-89
2024/03/28 05:58:30;;;;;;;2.90;2.60;;;;;;;;;;6143172;23;20674;-89
2024/03/28 06:00:58;;;;;;;2.27;2.00;;;;;;;;;;6099189;23;20491;-87
2024/03/28 06:03:27;;;;;;;3.23;2.93;;;;;;;;;;6121393;23;20419;-86
2024/03/28 06:05:58;;;;;;;2.70;2.50;;;;;;;;;;6097356;23;20434;-88
2024/03/28 06:08:25;;;;;;;2.50;2.30;;;;;;;;;;6096069;23;20411;-87
2024/03/28 06:10:57;;;;;;;1.70;1.60;;;;;;;;;;6094721;23;20422;-88
2024/03/28 06:13:26;;;;;;;2.50;2.20;;;;;;;;;;6089223;23;20408;-87
2024/03/28 06:15:59;;;;;;;2.50;2.30;;;;;;;;;;6085937;23;20964;-88
2024/03/28 06:18:33;;;;;;;3.43;2.73;;;;;;;;;;6085227;23;20408;-87
2024/03/28 06:21:06;;;;;;;2.50;2.30;;;;;;;;;;6086518;23;20399;-89
2024/03/28 06:23:33;;;;;;;2.30;1.77;;;;;;;;;;6084165;23;20436;-86
2024/03/28 06:26:08;;;;;;;1.93;1.83;;;;;;;;;;6083076;23;20406;-85
2024/03/28 06:28:44;;;;;;;2.10;1.90;;;;;;;;;;6088234;23;20418;-88
2024/03/28 06:31:24;;;;;;;2.00;1.70;;;;;;;;;;6086530;23;20408;-87
2024/03/28 06:33:55;;;;;;;1.70;1.60;;;;;;;;;;6084168;23;20406;-86
2024/03/28 06:36:26;;;;;;;1.90;1.70;;;;;;;;;;6083091;23;20419;-87
2024/03/28 06:39:06;;;;;;;2.30;1.77;;;;;;;;;;6082108;23;20484;-87
2024/03/28 06:41:39;;;;;;;2.83;1.50;;;;;;;;;;6083695;23;20412;-84
2024/03/28 06:44:09;;;;;;;2.13;1.80;;;;;;;;;;6106642;23;20443;-86
2024/03/28 06:46:38;;;;;;;2.00;1.83;;;;;;;;;;6083397;23;20459;-87
2024/03/28 06:49:05;;;;;;;1.90;1.80;;;;;;;;;;6082749;23;20772;-87
2024/03/28 06:51:43;;;;;;;1.80;1.67;;;;;;;;;;6126667;23;20457;-87
2024/03/28 06:54:12;;;;;;;2.77;1.67;;;;;;;;;;6099061;23;20471;-88
2024/03/28 06:56:47;;;;;;;2.17;1.73;;;;;;;;;;6099315;23;20506;-87
2024/03/28 06:59:17;;;;;;;1.70;1.60;;;;;;;;;;6121313;23;20499;-89
2024/03/28 07:01:44;;;;;;;2.10;1.57;;;;;;;;;;6101580;23;20473;-88
2024/03/28 07:04:11;;;;;;;1.60;1.50;;;;;;;;;;6153682;23;20557;-89
2024/03/28 07:06:41;;;;;;;1.57;1.47;;;;;;;;;;6143548;23;20527;-88
2024/03/28 07:09:11;;;;;;;1.80;1.70;;;;;;;;;;6125166;23;20502;-87
2024/03/28 07:11:43;;;;;;;2.77;1.77;;;;;;;;;;6120024;23;20404;-86
2024/03/28 07:14:24;;;;;;;1.67;1.57;;;;;;;;;;6136034;23;20428;-85
2024/03/28 07:16:51;;;;;;;2.80;1.80;;;;;;;;;;6112769;23;20407;-85
2024/03/28 07:19:21;;;;;;;2.17;1.73;;;;;;;;;;6116326;23;20424;-86
2024/03/28 07:21:56;;;;;;;2.23;2.03;;;;;;;;;;6113607;23;20408;-84
2024/03/28 07:24:28;;;;;;;1.40;1.30;;;;;;;;;;6132408;23;20546;-86
2024/03/28 07:27:03;;;;;;;2.57;1.60;;;;;;;;;;6109759;23;20400;-87
2024/03/28 07:29:41;;;;;;;3.43;1.77;;;;;;;;;;6114502;23;20427;-87
2024/03/28 07:32:22;;;;;;;2.13;1.93;;;;;;;;;;6116801;23;20407;-87
2024/03/28 07:34:58;;;;;;;1.93;1.47;;;;;;;;;;6136964;23;20408;-87
2024/03/28 07:37:36;;;;;;;3.30;1.67;;;;;;;;;;6112392;23;20403;-87
2024/03/28 07:40:18;;;;;;;2.30;1.77;;;;;;;;;;6106244;23;20492;-86
2024/03/28 07:42:49;;;;;;;3.20;1.60;;;;;;;;;;6153299;23;20449;-87
2024/03/28 07:45:37;;;;;;;3.13;2.07;;;;;;;;;;6153230;23;20490;-87
2024/03/28 07:48:16;;;;;;;1.70;1.60;;;;;;;;;;6145552;23;20430;-87
2024/03/28 07:51:00;;;;;;;2.43;1.67;;;;;;;;;;6133524;23;20399;-86
2024/03/28 07:53:30;;;;;;;3.90;1.80;;;;;;;;;;6113113;23;20393;-87
2024/03/28 07:56:23;;;;;;;1.97;1.67;;;;;;;;;;6082057;23;20404;-87
2024/03/28 07:59:07;;;;;;;3.43;1.60;;;;;;;;;;6091338;23;20426;-86
2024/03/28 08:01:39;;;;;;;2.20;1.10;;;;;;;;;;6091363;23;20404;-85
2024/03/28 08:04:16;;;;;;;1.70;1.30;;;;;;;;;;6090508;23;20450;-86
2024/03/28 08:06:52;;;;;;;3.03;1.40;;;;;;;;;;6137284;23;20800;-87
2024/03/28 08:09:26;;;;;;;2.60;1.43;;;;;;;;;;6089042;23;20482;-84
2024/03/28 08:11:56;;;;;;;2.00;1.30;;;;;;;;;;6093310;23;20422;-86
2024/03/28 08:14:39;;;;;;;1.40;1.30;;;;;;;;;;6100264;23;20431;-87
2024/03/28 08:20:50;;;;;;;1.00;1.00;;;;;;;;;;6135331;23;20453;-89
2024/03/28 08:23:18;;;;;;;1.23;1.13;;;;;;;;;;6129557;23;20483;-88
2024/03/28 08:25:47;;;;;;;1.23;1.03;;;;;;;;;;6125631;23;20407;-87
2024/03/28 08:28:18;;;;;;;1.00;0.87;;;;;;;;;;6121371;23;20403;-88
2024/03/28 08:30:48;;;;;;;1.17;0.97;;;;;;;;;;6150668;23;20422;-86
2024/03/28 08:33:19;;;;;;;2.23;1.10;;;;;;;;;;6153378;23;20406;-86
2024/03/28 08:35:49;;;;;;;1.90;1.80;;;;;;;;;;6147954;23;20417;-88
2024/03/28 08:38:22;;;;;;;1.83;0.90;;;;;;;;;;6149297;23;20409;-87
2024/03/28 08:40:50;;;;;;;1.70;0.97;;;;;;;;;;6148689;23;20398;-86
2024/03/28 08:43:51;;;;;;;1.03;0.70;;;;;;;;;;6183122;23;20449;-86
2024/03/28 08:46:44;;;;;;;0.70;0.70;;;;;;;;;;6200639;23;20449;-87
2024/03/28 08:49:42;;;;;;;0.60;0.60;;;;;;;;;;6105957;23;20435;-87
2024/03/28 08:52:20;;;;;;;1.00;0.90;;;;;;;;;;6079865;23;20407;-86
2024/03/28 08:55:22;;;;;;;0.80;0.80;;;;;;;;;;6111421;23;20407;-88
2024/03/28 08:58:10;;;;;;;2.80;0.80;;;;;;;;;;6101792;23;20413;-87
2024/03/28 09:00:42;;;;;;;0.80;0.80;;;;;;;;;;6143805;23;20422;-88
2024/03/28 09:09:43;;;;;;;0.80;0.80;;;;;;;;;;6165989;23;20428;-87
2024/03/28 09:13:20;;;;;;;;;;;;;;;;;;;;;
2024/03/28 09:15:53;;;;;;;1.20;0.90;;;;;;;;;;6028976;23;20430;-87
2024/03/28 09:18:38;;;;;;;0.80;0.80;;;;;;;;;;6041367;23;20409;-86
2024/03/28 09:21:26;;;;;;;1.37;1.03;;;;;;;;;;6173863;23;20414;-85
2024/03/28 09:23:57;;;;;;;2.60;1.20;;;;;;;;;;6150870;23;20456;-86
2024/03/28 09:26:23;;;;;;;0.80;0.80;;;;;;;;;;6150498;23;20398;-85
2024/03/28 09:28:58;;;;;;;1.00;1.00;;;;;;;;;;6148935;23;20422;-86
2024/03/28 09:31:43;;;;;;;1.10;1.00;;;;;;;;;;6199439;23;20413;-87
2024/03/28 09:34:15;;;;;;;2.00;1.10;;;;;;;;;;6150383;23;20410;-86
2024/03/28 09:36:52;;;;;;;1.43;1.33;;;;;;;;;;6153244;23;20402;-85
2024/03/28 09:39:24;;;;;;;1.30;1.20;;;;;;;;;;6150759;23;20422;-86
2024/03/28 09:42:06;;;;;;;1.20;1.10;;;;;;;;;;6141321;23;20410;-86
2024/03/28 09:45:06;;;;;;;1.00;1.00;;;;;;;;;;6211082;23;20554;-86
2024/03/28 09:48:42;;;;;;;0.93;0.80;;;;;;;;;;6207227;23;20498;-86
2024/03/28 09:51:26;;;;;;;0.70;0.70;;;;;;;;;;6200327;23;20398;-86
2024/03/28 09:54:11;;;;;;;1.33;0.77;;;;;;;;;;6160128;23;20398;-87
2024/03/28 09:56:39;;;;;;;1.13;0.50;;;;;;;;;;6151674;23;20382;-86
2024/03/28 09:59:21;;;;;;;1.13;0.60;;;;;;;;;;6152757;23;20443;-86
2024/03/28 10:01:57;;;;;;;0.63;0.63;;;;;;;;;;6173490;23;20403;-86
2024/03/28 10:04:41;;;;;;;0.40;0.40;;;;;;;;;;6150903;23;20442;-87
2024/03/28 10:07:12;;;;;;;1.23;0.50;;;;;;;;;;6150959;23;20398;-86
2024/03/28 10:09:44;;;;;;;1.53;0.50;;;;;;;;;;6146372;23;20430;-86
2024/03/28 10:12:14;;;;;;;0.87;0.47;;;;;;;;;;6146217;23;20401;-86
2024/03/28 10:15:00;;;;;;;0.40;0.40;;;;;;;;;;6147944;23;20432;-87
2024/03/28 10:17:34;;;;;;;0.83;0.50;;;;;;;;;;6148853;23;20406;-87
2024/03/28 10:20:13;;;;;;;0.50;0.40;;;;;;;;;;6149789;23;20426;-85
2024/03/28 10:22:52;;;;;;;1.17;0.50;;;;;;;;;;6145797;23;20410;-87
2024/03/28 10:25:28;;;;;;;0.57;0.50;;;;;;;;;;6147344;23;20402;-87
2024/03/28 10:28:05;;;;;;;0.70;0.50;;;;;;;;;;6150400;23;20404;-89
2024/03/28 10:30:42;;;;;;;2.77;0.67;;;;;;;;;;6173064;23;20495;-88
2024/03/28 10:33:14;;;;;;;1.17;0.50;;;;;;;;;;6125072;23;20409;-87
2024/03/28 10:35:58;;;;;;;0.53;0.50;;;;;;;;;;6178129;23;21050;-86
2024/03/28 10:38:34;;;;;;;1.60;0.70;;;;;;;;;;6141980;23;20433;-87
2024/03/28 10:41:11;;;;;;;1.57;0.70;;;;;;;;;;6127283;23;20405;-86
2024/03/28 10:43:40;;;;;;;1.13;0.60;;;;;;;;;;6145720;23;20446;-87
2024/03/28 10:46:20;;;;;;;2.20;0.80;;;;;;;;;;6147743;23;20429;-86
2024/03/28 10:48:50;;;;;;;1.83;0.80;;;;;;;;;;6148502;23;20426;-89
2024/03/28 10:51:30;;;;;;;1.20;0.90;;;;;;;;;;6149553;23;20402;-87
2024/03/28 10:53:57;;;;;;;1.20;0.57;;;;;;;;;;6151169;23;20412;-86
2024/03/28 10:59:59;;;;;;;0.53;0.50;;;;;;;;;;6201961;23;20389;-88
2024/03/28 11:02:41;;;;;;;0.63;0.63;;;;;;;;;;6175482;23;20398;-87
2024/03/28 11:05:29;;;;;;;1.10;0.90;;;;;;;;;;6154163;23;20382;-86
2024/03/28 11:08:07;;;;;;;1.50;1.00;;;;;;;;;;6146003;23;20436;-88
2024/03/28 11:10:42;;;;;;;0.70;0.50;;;;;;;;;;6140996;23;20606;-87
2024/03/28 11:13:20;;;;;;;0.90;0.63;;;;;;;;;;6165850;23;20420;-88
2024/03/28 11:16:12;;;;;;;0.50;0.50;;;;;;;;;;6142202;23;20410;-85
2024/03/28 11:18:42;;;;;;;0.93;0.50;;;;;;;;;;6143536;23;20452;-88
2024/03/28 11:21:38;;;;;;;1.83;0.40;;;;;;;;;;6146812;23;20424;-86
2024/03/28 11:24:07;;;;;;;0.60;0.50;;;;;;;;;;6096671;23;20450;-86
2024/03/28 11:26:40;;;;;;;3.40;1.40;;;;;;;;;;6146312;23;20428;-86
2024/03/28 11:29:12;;;;;;;2.30;0.73;;;;;;;;;;6137013;23;20418;-86
2024/03/28 11:34:38;;;;;;;1.27;0.50;;;;;;;;;;6155458;23;20417;-87
2024/03/28 11:37:05;;;;;;;0.73;0.73;;;;;;;;;;6146443;23;20414;-87
2024/03/28 11:39:40;;;;;;;2.10;0.60;;;;;;;;;;6148343;23;20422;-88
2024/03/28 11:42:20;;;;;;;0.60;0.57;;;;;;;;;;6155967;23;20436;-89
2024/03/28 11:45:08;;;;;;;0.60;0.47;;;;;;;;;;6163970;23;20437;-89
2024/03/28 11:47:39;;;;;;;1.07;0.50;;;;;;;;;;6160385;23;20461;-86
2024/03/28 11:50:06;;;;;;;0.53;0.53;;;;;;;;;;6186794;23;20521;-89
2024/03/28 11:55:24;;;;;;;;;;;;;;;;;;;;;
2024/03/28 11:58:26;;;;;;;0.80;0.40;;;;;;;;;;6150556;23;20594;-86
2024/03/28 12:01:00;;;;;;;0.63;0.50;;;;;;;;;;6092047;23;20460;-87
2024/03/28 12:03:41;;;;;;;0.80;0.40;;;;;;;;;;6093047;23;20557;-85
2024/03/28 12:06:12;;;;;;;0.80;0.50;;;;;;;;;;6104664;23;20513;-88
2024/03/28 12:08:49;;;;;;;0.77;0.50;;;;;;;;;;6094323;23;20880;-88
2024/03/28 12:11:49;;;;;;;1.50;0.60;;;;;;;;;;6152424;23;20448;-87
2024/03/28 12:14:32;;;;;;;0.70;0.70;;;;;;;;;;6128053;23;20489;-88
2024/03/28 12:17:02;;;;;;;0.50;0.40;;;;;;;;;;6123112;23;20730;-85
2024/03/28 12:19:37;;;;;;;0.50;0.47;;;;;;;;;;6116574;23;20836;-87
2024/03/28 12:22:15;;;;;;;0.77;0.43;;;;;;;;;;6140367;23;20410;-86
2024/03/28 12:24:45;;;;;;;0.97;0.50;;;;;;;;;;6118090;23;20428;-87
2024/03/28 12:27:19;;;;;;;0.70;0.40;;;;;;;;;;6093320;23;20408;-87
2024/03/28 12:30:07;;;;;;;0.40;0.30;;;;;;;;;;6117702;23;20416;-86
2024/03/28 12:32:36;;;;;;;0.40;0.30;;;;;;;;;;6113037;23;20406;-87
2024/03/28 12:35:16;;;;;;;1.30;0.50;;;;;;;;;;6140460;23;20392;-86
2024/03/28 12:38:19;;;;;;;0.60;0.60;;;;;;;;;;6151049;23;20427;-87
2024/03/28 12:41:12;;;;;;;0.93;0.40;;;;;;;;;;6151793;23;20463;-87
2024/03/28 12:44:02;;;;;;;1.13;0.30;;;;;;;;;;6120635;23;20439;-86
2024/03/28 12:46:45;;;;;;;0.30;0.30;;;;;;;;;;6119076;23;20408;-88
2024/03/28 12:52:25;;;;;;;0.43;0.30;;;;;;;;;;6114693;23;20404;-87
2024/03/28 12:55:11;;;;;;;0.40;0.30;;;;;;;;;;6111604;23;20413;-86
2024/03/28 12:57:57;;;;;;;1.00;0.40;;;;;;;;;;6114973;23;20470;-85
2024/03/28 13:00:41;;;;;;;0.40;0.40;;;;;;;;;;6138287;23;20422;-86
2024/03/28 13:03:57;;;;;;;2.53;1.73;;;;;;;;;;6118263;23;20618;-86
2024/03/28 13:06:41;;;;;;;0.50;0.40;;;;;;;;;;6138544;23;20729;-86
2024/03/28 13:09:22;;;;;;;1.80;0.50;;;;;;;;;;6113338;23;20427;-86
2024/03/28 13:11:59;;;;;;;0.73;0.40;;;;;;;;;;6106675;23;20412;-85
2024/03/28 13:14:36;;;;;;;2.00;0.53;;;;;;;;;;6136455;23;20411;-86
2024/03/28 13:20:10;;;;;;;0.40;0.40;;;;;;;;;;6123822;23;20411;-87
2024/03/28 13:25:19;;;;;;;1.03;0.70;;;;;;;;;;6120852;23;20434;-87
2024/03/28 13:30:34;;;;;;;9.27;0.80;;;;;;;;;;6168538;23;20441;-88
2024/03/28 13:33:05;;;;;;;0.90;0.50;;;;;;;;;;6128704;23;20462;-88
2024/03/28 13:38:21;;;;;;;0.63;0.50;;;;;;;;;;6160880;23;20447;-88
2024/03/28 13:40:57;;;;;;;1.03;0.40;;;;;;;;;;6152729;23;20459;-84
2024/03/28 13:43:24;;;;;;;1.67;0.43;;;;;;;;;;6104152;23;20425;-86
2024/03/28 13:46:05;;;;;;;0.80;0.50;;;;;;;;;;6116600;23;20423;-86
2024/03/28 13:48:54;;;;;;;0.60;0.47;;;;;;;;;;6140163;23;21263;-85
2024/03/28 13:51:27;;;;;;;0.83;0.53;;;;;;;;;;6142849;23;20399;-87
2024/03/28 13:53:57;;;;;;;0.77;0.47;;;;;;;;;;6118788;23;20407;-85
2024/03/28 13:56:27;;;;;;;0.70;0.40;;;;;;;;;;6141341;23;20631;-86
2024/03/28 13:59:07;;;;;;;0.53;0.53;;;;;;;;;;6127923;23;20998;-88
2024/03/28 14:01:38;;;;;;;0.60;0.40;;;;;;;;;;6105854;23;20461;-87
2024/03/28 14:04:15;;;;;;;2.53;0.50;;;;;;;;;;6132030;23;20502;-87
2024/03/28 14:06:47;;;;;;;1.00;0.60;;;;;;;;;;6132008;23;20461;-87
2024/03/28 14:09:38;;;;;;;2.83;0.73;;;;;;;;;;6158801;23;20447;-86
2024/03/28 14:12:10;;;;;;;0.90;0.40;;;;;;;;;;6129703;23;20478;-89
2024/03/28 14:15:09;;;;;;;0.40;0.40;;;;;;;;;;6129729;23;20467;-87
2024/03/28 14:17:36;;;;;;;1.07;0.57;;;;;;;;;;6038566;23;20454;-87
2024/03/28 14:20:07;;;;;;;1.27;0.90;;;;;;;;;;6129010;23;20473;-88
2024/03/28 14:22:36;;;;;;;3.10;0.60;;;;;;;;;;6124593;23;20445;-87
2024/03/28 14:25:13;;;;;;;0.80;0.50;;;;;;;;;;6127990;23;20409;-85
2024/03/28 14:27:42;;;;;;;0.67;0.67;;;;;;;;;;6174631;23;20399;-86
2024/03/28 14:30:16;;;;;;;0.50;0.50;;;;;;;;;;6150153;23;20470;-89
2024/03/28 14:32:46;;;;;;;0.60;0.50;;;;;;;;;;6062861;23;20398;-88
2024/03/28 14:35:21;;;;;;;0.83;0.50;;;;;;;;;;6084148;23;20405;-86
2024/03/28 14:38:15;;;;;;;0.60;0.40;;;;;;;;;;6059410;23;20388;-87
2024/03/28 14:40:46;;;;;;;0.60;0.60;;;;;;;;;;6052401;23;20764;-85
2024/03/28 14:43:15;;;;;;;0.60;0.40;;;;;;;;;;6084471;23;20448;-86
2024/03/28 14:45:45;;;;;;;2.40;0.97;;;;;;;;;;6026745;23;20406;-87
2024/03/28 14:48:19;;;;;;;2.10;1.00;;;;;;;;;;6035635;23;20413;-86
2024/03/28 14:51:00;;;;;;;1.10;0.50;;;;;;;;;;6033841;23;20401;-87
2024/03/28 14:53:41;;;;;;;0.73;0.67;;;;;;;;;;6035368;23;20412;-85
2024/03/28 14:56:10;;;;;;;1.33;0.50;;;;;;;;;;6033188;23;20562;-87
2024/03/28 14:59:30;;;;;;;0.60;0.53;;;;;;;;;;6075930;23;20417;-86
2024/03/28 15:02:08;;;;;;;0.67;0.50;;;;;;;;;;6017112;23;20425;-88
2024/03/28 15:04:41;;;;;;;0.63;0.40;;;;;;;;;;6033074;23;20454;-86
2024/03/28 15:07:08;;;;;;;0.60;0.37;;;;;;;;;;6035889;23;20427;-85
2024/03/28 15:09:38;;;;;;;0.50;0.50;;;;;;;;;;6058989;23;20422;-86
2024/03/28 15:12:22;;;;;;;0.40;0.40;;;;;;;;;;6148243;23;20395;-86
2024/03/28 15:15:00;;;;;;;0.50;0.50;;;;;;;;;;6118274;23;20418;-88
2024/03/28 15:17:41;;;;;;;0.80;0.80;;;;;;;;;;6122586;23;20407;-85
2024/03/28 15:20:19;;;;;;;1.27;0.87;;;;;;;;;;6120449;23;20853;-87
2024/03/28 15:22:50;;;;;;;2.10;0.67;;;;;;;;;;6124437;23;20394;-84
2024/03/28 15:25:20;;;;;;;1.20;0.47;;;;;;;;;;6122629;23;20506;-86
2024/03/28 15:27:53;;;;;;;1.33;0.50;;;;;;;;;;6122642;23;20388;-85
2024/03/28 15:30:23;;;;;;;0.40;0.40;;;;;;;;;;6125103;23;20461;-85
2024/03/28 15:32:58;;;;;;;2.07;0.70;;;;;;;;;;6129879;23;20478;-88
2024/03/28 15:35:32;;;;;;;1.67;0.40;;;;;;;;;;6130519;23;20486;-84
2024/03/28 15:38:09;;;;;;;1.93;0.77;;;;;;;;;;6127737;23;20463;-85
2024/03/28 15:40:42;;;;;;;0.87;0.70;;;;;;;;;;6124013;23;20422;-87
2024/03/28 15:43:11;;;;;;;1.83;0.50;;;;;;;;;;6119134;23;20443;-88
2024/03/28 15:45:39;;;;;;;1.90;0.70;;;;;;;;;;6117703;23;20407;-86
2024/03/28 15:48:14;;;;;;;0.40;0.40;;;;;;;;;;6126487;23;20430;-87
2024/03/28 15:50:47;;;;;;;1.90;0.80;;;;;;;;;;6125607;23;20510;-86
2024/03/28 15:53:14;;;;;;;0.97;0.57;;;;;;;;;;6121799;23;20395;-87
2024/03/28 15:55:44;;;;;;;0.80;0.60;;;;;;;;;;6124488;23;20413;-88
2024/03/28 15:58:15;;;;;;;2.37;0.70;;;;;;;;;;6129686;23;20469;-87
2024/03/28 16:01:04;;;;;;;2.23;0.90;;;;;;;;;;6150630;23;20415;-87
2024/03/28 16:03:36;;;;;;;1.73;0.70;;;;;;;;;;6151930;23;20454;-87
2024/03/28 16:06:16;;;;;;;1.30;0.90;;;;;;;;;;6124610;23;20437;-88
2024/03/28 16:08:45;;;;;;;0.90;0.50;;;;;;;;;;6121000;23;20419;-86